Terminal Aerodrome Forecast
Issued by NWS

Home | Current Version | Previous Version | Text Only | Print | Product List | Glossary On
Versions: 1 2 3 4 5 6 7 8 9 10 11 12
441
FTUS45 KTFX 251120
TAFHLN
TAF
KHLN 251120Z 2512/2612 VRB04KT P6SM FEW060 SCT250
     FM252300 35011G20KT P6SM FEW045 FEW250
     FM260200 VRB06KT P6SM FEW025 SCT090=

USA.gov is the U.S. government's official web portal to all federal, state and local government web resources and services.